Terminal Aerodrome Forecast
Issued by NWS

Home | Current Version | Previous Version | Text Only | Print | Product List | Glossary On
Versions: 1 2 3 4 5 6 7 8 9 10 11 12 13 14 15
966
FTUS46 KSGX 291734
TAFSNA
TAF
KSNA 291734Z 2918/3018 05015G25KT P6SM FEW250
     FM292100 03011KT P6SM SKC
     FM292300 25011KT P6SM SKC
     FM300300 VRB05KT P6SM SKC=

USA.gov is the U.S. government's official web portal to all federal, state and local government web resources and services.